Time;durP1;ratioP1;P1;durP2;ratioP2;P2;SDS_P1;SDS_P2;PMS_P1;PMS_P2;Temp;Humidity;BMP_temperature;BMP_pressure;BME280_temperature;BME280_humidity;BME280_pressure;Samples;Min_cycle;Max_cycle;Signal;HPM_P1;HPM_P2
2022/06/29 00:00:52;;;;;;;3.97;2.60;;;;;;;17.32;100.00;101863.94;4844329;29;20052;-79
2022/06/29 00:03:20;;;;;;;6.03;2.70;;;;;;;17.31;100.00;101860.38;4886275;29;20045;-78
2022/06/29 00:05:49;;;;;;;3.92;2.83;;;;;;;17.30;100.00;101863.06;4874513;29;20697;-78
2022/06/29 00:08:17;;;;;;;4.50;2.55;;;;;;;17.29;100.00;101856.84;4823258;29;20395;-79
2022/06/29 00:10:46;;;;;;;4.18;3.00;;;;;;;17.30;100.00;101860.41;4832471;29;20184;-80
2022/06/29 00:13:14;;;;;;;6.18;2.63;;;;;;;17.28;100.00;101855.09;4845310;29;20076;-80
2022/06/29 00:15:43;;;;;;;4.72;2.90;;;;;;;17.29;100.00;101862.16;4862996;29;20149;-79
2022/06/29 00:18:12;;;;;;;6.50;3.10;;;;;;;17.28;100.00;101856.88;4860811;29;20041;-78
2022/06/29 00:20:40;;;;;;;7.03;2.90;;;;;;;17.26;100.00;101853.34;4858365;29;20041;-78
2022/06/29 00:23:10;;;;;;;14.60;3.60;;;;;;;17.25;100.00;101852.44;4880817;29;20041;-79
2022/06/29 00:25:38;;;;;;;8.10;3.43;;;;;;;17.25;100.00;101851.56;4858081;29;20331;-79
2022/06/29 00:28:07;;;;;;;6.65;3.22;;;;;;;17.26;100.00;101842.69;4835108;29;20312;-81
2022/06/29 00:30:36;;;;;;;4.57;3.08;;;;;;;17.27;100.00;101849.78;4861354;29;20060;-79
2022/06/29 00:33:04;;;;;;;6.00;3.80;;;;;;;17.26;100.00;101835.56;4869214;29;20053;-80
2022/06/29 00:35:33;;;;;;;5.28;3.30;;;;;;;17.24;100.00;101832.06;4857711;29;20458;-81
2022/06/29 00:38:01;;;;;;;6.10;3.60;;;;;;;17.21;100.00;101842.72;4838589;29;20037;-81
2022/06/29 00:40:30;;;;;;;3.55;3.25;;;;;;;17.20;100.00;101832.06;4857176;29;20053;-81
2022/06/29 00:42:58;;;;;;;7.38;3.58;;;;;;;17.18;100.00;101832.06;4818403;29;20049;-80
2022/06/29 00:45:27;;;;;;;4.80;3.38;;;;;;;17.18;100.00;101828.53;4828417;29;20072;-81
2022/06/29 00:47:55;;;;;;;5.65;3.38;;;;;;;17.18;100.00;101820.53;4862152;29;20503;-78
2022/06/29 00:50:29;;;;;;;5.82;2.90;;;;;;;17.20;100.00;101832.06;4861856;29;20044;-81
2022/06/29 00:53:03;;;;;;;4.07;3.08;;;;;;;17.19;100.00;101815.22;4876223;29;20056;-78
2022/06/29 00:55:35;;;;;;;3.25;2.85;;;;;;;17.20;100.00;101824.06;4853888;29;20276;-79
2022/06/29 00:58:05;;;;;;;5.95;3.20;;;;;;;17.20;100.00;101826.75;4831888;29;20041;-80
2022/06/29 01:00:34;;;;;;;9.57;4.03;;;;;;;17.21;100.00;101809.88;4856338;29;20228;-79
2022/06/29 01:03:03;;;;;;;4.63;3.65;;;;;;;17.22;100.00;101819.63;4843595;24;20061;-78
2022/06/29 01:05:31;;;;;;;6.95;3.50;;;;;;;17.23;100.00;101806.28;4875499;29;20433;-78
2022/06/29 01:08:00;;;;;;;4.88;3.38;;;;;;;17.23;100.00;101808.97;4855547;29;20112;-78
2022/06/29 01:10:34;;;;;;;6.03;3.42;;;;;;;17.23;100.00;101803.63;4866958;29;20370;-79
2022/06/29 01:13:03;;;;;;;6.95;3.40;;;;;;;17.23;100.00;101800.97;4826494;29;20065;-78
2022/06/29 01:15:32;;;;;;;4.47;3.42;;;;;;;17.22;100.00;101803.63;4868708;29;20160;-79
2022/06/29 01:18:00;;;;;;;6.03;3.97;;;;;;;17.20;100.00;101803.69;4845833;29;20060;-79
2022/06/29 01:20:29;;;;;;;6.35;3.60;;;;;;;17.21;100.00;101796.56;4860849;29;20057;-77
2022/06/29 01:22:57;;;;;;;5.30;3.70;;;;;;;17.19;100.00;101790.38;4866898;29;20041;-78
2022/06/29 01:25:27;;;;;;;7.00;4.50;;;;;;;17.16;100.00;101788.59;4855358;29;20421;-77
2022/06/29 01:27:56;;;;;;;5.90;3.70;;;;;;;17.15;100.00;101782.41;4870947;29;20056;-78
2022/06/29 01:30:25;;;;;;;4.03;3.72;;;;;;;17.13;100.00;101789.53;4824304;29;20053;-79
2022/06/29 01:32:53;;;;;;;5.80;3.95;;;;;;;17.12;100.00;101777.09;4869601;29;20048;-77
2022/06/29 01:35:23;;;;;;;6.07;3.70;;;;;;;17.11;100.00;101787.78;4898526;29;20055;-78
2022/06/29 01:37:51;;;;;;;6.05;4.25;;;;;;;17.09;100.00;101781.59;4870896;29;20239;-79
2022/06/29 01:40:20;;;;;;;4.88;3.80;;;;;;;17.04;100.00;101784.28;4842491;29;20045;-78
2022/06/29 01:42:49;;;;;;;8.23;4.30;;;;;;;17.01;100.00;101783.41;4853684;29;20161;-78
2022/06/29 01:45:17;;;;;;;5.93;3.97;;;;;;;16.94;100.00;101790.59;4841552;29;20056;-78
2022/06/29 01:47:46;;;;;;;6.07;3.72;;;;;;;16.90;100.00;101788.81;4849722;29;20327;-78
2022/06/29 01:50:14;;;;;;;5.45;4.22;;;;;;;16.85;100.00;101788.88;4876312;29;20406;-78
2022/06/29 01:52:42;;;;;;;5.38;4.55;;;;;;;16.83;100.00;101781.81;4875951;29;20232;-78
2022/06/29 01:55:11;;;;;;;5.53;4.38;;;;;;;16.81;100.00;101775.56;4883886;29;20405;-78
2022/06/29 01:57:40;;;;;;;4.60;4.20;;;;;;;16.80;100.00;101785.31;4850306;29;20445;-78
2022/06/29 02:00:10;;;;;;;6.55;5.13;;;;;;;16.79;100.00;101780.03;4836472;29;20042;-78
2022/06/29 02:02:38;;;;;;;6.30;4.65;;;;;;;16.79;100.00;101778.25;4890732;29;20045;-78
2022/06/29 02:05:08;;;;;;;9.20;4.80;;;;;;;16.79;100.00;101778.25;4850059;29;20072;-78
2022/06/29 02:07:36;;;;;;;6.18;4.50;;;;;;;16.77;100.00;101775.59;4856938;29;20060;-78
2022/06/29 02:10:06;;;;;;;5.90;4.28;;;;;;;16.79;100.00;101774.72;4867888;29;20056;-78
2022/06/29 02:12:34;;;;;;;6.45;4.78;;;;;;;16.77;100.00;101764.06;4867166;29;20173;-79
2022/06/29 02:15:03;;;;;;;7.05;4.82;;;;;;;16.73;100.00;101763.19;4875134;29;20049;-78
2022/06/29 02:17:31;;;;;;;7.78;4.68;;;;;;;16.69;100.00;101760.56;4834531;29;20037;-79
2022/06/29 02:19:59;;;;;;;6.70;4.50;;;;;;;16.69;100.00;101771.22;4870719;29;20525;-78
2022/06/29 02:22:28;;;;;;;5.50;5.00;;;;;;;16.67;100.00;101763.25;4894174;29;20053;-79
2022/06/29 02:24:57;;;;;;;11.65;4.85;;;;;;;16.66;100.00;101764.13;4878058;29;20048;-79
2022/06/29 02:27:25;;;;;;;6.18;5.50;;;;;;;16.64;100.00;101771.25;4866041;29;20056;-78
2022/06/29 02:29:55;;;;;;;5.60;5.20;;;;;;;16.62;100.00;101758.88;4856338;29;20050;-78
2022/06/29 02:35:11;;;;;;;6.72;5.25;;;;;;;16.60;100.00;101753.53;4865752;29;20052;-78
2022/06/29 02:37:39;;;;;;;7.40;5.32;;;;;;;16.58;100.00;101758.00;4850597;29;20041;-78
2022/06/29 02:40:08;;;;;;;6.95;5.18;;;;;;;16.56;100.00;101749.16;4887222;29;20045;-78
2022/06/29 02:42:36;;;;;;;6.57;5.90;;;;;;;16.56;100.00;101751.81;4852639;29;20260;-78
2022/06/29 02:45:24;;;;;;;6.38;5.45;;;;;;;16.58;100.00;101747.34;4873130;29;20044;-78
2022/06/29 02:47:53;;;;;;;6.22;4.78;;;;;;;16.58;100.00;101744.69;4829744;29;20515;-78
2022/06/29 02:50:21;;;;;;;6.20;5.70;;;;;;;16.59;100.00;101751.75;4845283;29;20052;-78
2022/06/29 02:52:50;;;;;;;6.78;6.18;;;;;;;16.59;100.00;101749.09;4860371;29;20057;-79
2022/06/29 02:55:19;;;;;;;6.82;5.95;;;;;;;16.59;100.00;101742.91;4887551;29;20056;-77
2022/06/29 02:57:47;;;;;;;8.93;6.47;;;;;;;16.60;100.00;101742.00;4872136;29;20262;-78
2022/06/29 03:00:16;;;;;;;7.15;6.53;;;;;;;16.61;100.00;101741.13;4888802;29;20375;-78
2022/06/29 03:02:45;;;;;;;8.20;5.93;;;;;;;16.62;100.00;101750.88;4852339;29;20553;-78
2022/06/29 03:05:13;;;;;;;7.80;7.00;;;;;;;16.61;100.00;101747.31;4827483;29;20041;-78
2022/06/29 03:07:42;;;;;;;7.32;6.47;;;;;;;16.62;100.00;101749.09;4845429;29;20041;-78
2022/06/29 03:10:11;;;;;;;8.90;7.10;;;;;;;16.63;100.00;101731.34;4885721;29;20040;-77
2022/06/29 03:12:39;;;;;;;11.13;7.80;;;;;;;16.64;100.00;101734.00;4852034;29;20560;-78
2022/06/29 03:15:08;;;;;;;9.07;8.25;;;;;;;16.63;100.00;101726.03;4872809;29;20060;-77
2022/06/29 03:17:36;;;;;;;13.45;9.10;;;;;;;16.62;100.00;101725.16;4854247;29;20561;-78
2022/06/29 03:20:05;;;;;;;11.23;9.60;;;;;;;16.63;100.00;101718.03;4814460;29;20060;-78
2022/06/29 03:22:34;;;;;;;13.70;10.93;;;;;;;16.62;100.00;101722.47;4839466;29;20163;-78
2022/06/29 03:25:03;;;;;;;12.02;9.48;;;;;;;16.62;100.00;101721.63;4878942;29;20056;-78
2022/06/29 03:27:32;;;;;;;11.32;8.95;;;;;;;16.64;100.00;101714.50;4866539;29;20553;-78
2022/06/29 03:30:01;;;;;;;9.43;8.25;;;;;;;16.64;100.00;101712.72;4893435;29;20048;-78
2022/06/29 03:32:29;;;;;;;8.48;6.97;;;;;;;16.64;100.00;101704.72;4865062;29;20182;-78
2022/06/29 03:34:58;;;;;;;6.90;6.30;;;;;;;16.65;100.00;101711.78;4843414;29;20546;-78
2022/06/29 03:37:27;;;;;;;6.22;5.63;;;;;;;16.68;100.00;101710.91;4847566;29;20112;-78
2022/06/29 03:39:56;;;;;;;5.90;5.40;;;;;;;16.69;100.00;101712.66;4881366;29;20059;-78
2022/06/29 03:42:25;;;;;;;8.68;4.88;;;;;;;16.69;100.00;101716.22;4878207;29;20059;-78
2022/06/29 03:44:55;;;;;;;4.97;4.57;;;;;;;16.71;100.00;101706.44;4855051;29;20053;-78
2022/06/29 03:47:25;;;;;;;6.32;4.63;;;;;;;16.70;100.00;101699.34;4873653;29;20045;-78
2022/06/29 03:49:53;;;;;;;7.15;4.72;;;;;;;16.72;100.00;101702.00;4864769;29;20052;-78
2022/06/29 03:52:22;;;;;;;8.45;4.72;;;;;;;16.71;100.00;101706.44;4839681;29;20128;-78
2022/06/29 03:54:51;;;;;;;4.85;4.45;;;;;;;16.72;100.00;101700.22;4886600;29;20608;-78
2022/06/29 03:57:19;;;;;;;4.60;4.30;;;;;;;16.73;100.00;101703.78;4881008;29;20045;-78
2022/06/29 03:59:48;;;;;;;7.72;4.72;;;;;;;16.74;100.00;101697.53;4866785;29;20252;-79
2022/06/29 04:02:16;;;;;;;7.32;4.03;;;;;;;16.75;100.00;101696.66;4893035;29;20044;-78
2022/06/29 04:04:45;;;;;;;6.47;4.68;;;;;;;16.73;100.00;101691.34;4872340;29;20627;-78
2022/06/29 04:07:13;;;;;;;5.20;4.13;;;;;;;16.76;100.00;101687.75;4823779;29;20045;-79
2022/06/29 04:09:42;;;;;;;7.30;3.70;;;;;;;16.79;100.00;101692.19;4836933;29;20045;-78
2022/06/29 04:12:10;;;;;;;6.18;3.80;;;;;;;16.81;100.00;101690.41;4857880;29;20049;-78
2022/06/29 04:14:39;;;;;;;4.53;4.13;;;;;;;16.91;100.00;101689.44;4852451;29;20176;-78
2022/06/29 04:17:07;;;;;;;5.50;4.53;;;;;;;16.93;100.00;101688.50;4856211;29;20056;-78
2022/06/29 04:19:36;;;;;;;5.05;4.00;;;;;;;16.95;100.00;101683.19;4886972;29;20431;-78
2022/06/29 04:22:04;;;;;;;6.97;4.53;;;;;;;16.98;100.00;101691.16;4852626;29;20045;-77
2022/06/29 04:24:33;;;;;;;5.25;4.13;;;;;;;17.00;100.00;101681.34;4867286;29;20048;-78
2022/06/29 04:27:02;;;;;;;5.97;4.80;;;;;;;17.00;100.00;101681.34;4863208;29;20041;-79
2022/06/29 04:29:31;;;;;;;5.28;4.70;;;;;;;17.01;100.00;101687.56;4849137;29;20044;-77
2022/06/29 04:35:05;;;;;;;8.35;4.03;;;;;;;17.09;100.00;101683.06;4832017;29;20046;-78
2022/06/29 04:37:34;;;;;;;5.07;4.10;;;;;;;17.14;100.00;101678.53;4805414;29;20496;-79
2022/06/29 04:44:22;;;;;;;4.93;4.45;;;;;;;18.28;100.00;101674.44;4823284;29;20061;-77
2022/06/29 04:46:50;;;;;;;5.47;5.00;;;;;;;18.73;100.00;101674.53;4837791;29;20069;-78
2022/06/29 04:49:19;;;;;;;10.50;5.80;;;;;;;19.10;100.00;101673.91;4820821;29;20057;-78
2022/06/29 04:51:47;;;;;;;5.00;4.53;;;;;;;19.63;100.00;101663.03;4850573;29;20094;-78
2022/06/29 04:54:16;;;;;;;4.45;4.05;;;;;;;20.20;98.27;101665.34;4813229;29;20054;-78
2022/06/29 04:56:45;;;;;;;5.38;4.15;;;;;;;20.21;96.95;101660.88;4852747;29;20053;-78
2022/06/29 04:59:15;;;;;;;5.38;3.95;;;;;;;20.63;95.31;101658.94;4814367;29;20268;-78
2022/06/29 05:01:45;;;;;;;4.03;3.50;;;;;;;21.30;94.67;101654.47;4860973;29;20071;-78
2022/06/29 05:04:15;;;;;;;4.00;3.65;;;;;;;21.39;92.24;101657.75;4834011;29;20177;-78
2022/06/29 05:06:43;;;;;;;6.55;3.70;;;;;;;21.31;91.64;101654.44;4836951;29;20046;-78
2022/06/29 05:09:12;;;;;;;3.75;3.45;;;;;;;21.36;91.46;101655.19;4796770;29;20042;-78
2022/06/29 05:11:40;;;;;;;5.13;3.88;;;;;;;21.52;88.41;101654.75;4837122;29;20038;-78
2022/06/29 05:14:11;;;;;;;7.60;4.30;;;;;;;21.91;88.04;101651.75;4843455;29;20065;-78
2022/06/29 05:16:40;;;;;;;7.03;4.05;;;;;;;22.60;87.55;101648.66;4863507;29;20081;-78
2022/06/29 05:19:08;;;;;;;4.40;3.90;;;;;;;22.98;84.85;101656.25;4819622;29;20614;-78
2022/06/29 05:21:37;;;;;;;8.48;4.03;;;;;;;22.74;82.75;101657.09;4821682;29;20054;-78
2022/06/29 05:24:06;;;;;;;12.07;4.30;;;;;;;22.45;81.33;101664.34;4796673;29;20482;-78
2022/06/29 05:26:38;;;;;;;7.05;4.45;;;;;;;22.04;81.59;101649.56;4843203;29;20527;-78
2022/06/29 05:29:06;;;;;;;5.38;4.60;;;;;;;21.63;81.41;101651.75;4828996;29;20054;-78
2022/06/29 05:31:36;;;;;;;8.30;5.35;;;;;;;21.26;82.57;101642.94;4846278;29;20057;-78
2022/06/29 05:34:04;;;;;;;7.45;4.10;;;;;;;20.93;83.37;101645.66;4849551;29;20046;-78
2022/06/29 05:36:33;;;;;;;5.45;3.53;;;;;;;20.61;83.33;101646.53;4860643;29;20061;-78
2022/06/29 05:39:02;;;;;;;10.75;4.38;;;;;;;20.38;84.47;101647.97;4821631;29;20069;-78
2022/06/29 05:41:31;;;;;;;5.90;3.78;;;;;;;20.21;85.76;101640.34;4850295;29;20042;-78
2022/06/29 05:43:59;;;;;;;8.40;4.40;;;;;;;20.05;86.00;101641.63;4871395;29;20054;-78
2022/06/29 05:46:27;;;;;;;8.02;4.18;;;;;;;19.92;87.20;101642.81;4835999;29;20056;-78
2022/06/29 05:48:56;;;;;;;13.27;4.07;;;;;;;19.84;87.82;101643.88;4869979;29;20064;-77
2022/06/29 05:51:25;;;;;;;7.05;3.85;;;;;;;19.73;87.85;101643.22;4853893;29;20612;-77
2022/06/29 05:53:53;;;;;;;7.47;3.83;;;;;;;19.62;87.70;101650.56;4812045;29;20530;-77
2022/06/29 05:56:22;;;;;;;7.13;3.30;;;;;;;19.52;87.30;101641.88;4860796;29;20176;-78
2022/06/29 05:58:51;;;;;;;5.20;3.30;;;;;;;19.46;87.68;101640.22;4857428;29;20372;-78
2022/06/29 06:01:19;;;;;;;4.35;2.90;;;;;;;19.48;88.60;101638.38;4834571;29;20722;-78
2022/06/29 06:03:48;;;;;;;3.90;3.10;;;;;;;19.64;89.33;101646.06;4858818;29;20499;-78
2022/06/29 06:06:16;;;;;;;3.58;2.80;;;;;;;19.83;88.43;101635.91;4856586;29;20050;-78
2022/06/29 06:08:45;;;;;;;3.03;2.78;;;;;;;19.93;85.38;101639.25;4815229;29;20049;-79
2022/06/29 06:11:13;;;;;;;3.53;3.17;;;;;;;20.06;85.73;101635.38;4870034;29;20165;-77
2022/06/29 06:13:41;;;;;;;4.88;2.70;;;;;;;20.20;85.36;101632.34;4863264;29;20141;-78
2022/06/29 06:16:10;;;;;;;7.00;2.45;;;;;;;20.29;84.66;101626.78;4833114;29;20049;-77
2022/06/29 06:18:58;;;;;;;8.48;3.30;;;;;;;20.64;84.17;101633.94;4856690;29;20060;-78
2022/06/29 06:21:27;;;;;;;7.43;2.80;;;;;;;20.94;83.79;101630.47;4841731;29;20057;-78
2022/06/29 06:23:58;;;;;;;4.72;2.78;;;;;;;21.15;83.77;101631.66;4826558;29;20041;-79
2022/06/29 06:26:27;;;;;;;3.22;2.70;;;;;;;21.36;81.30;101627.47;4850741;29;20049;-79
2022/06/29 06:28:55;;;;;;;5.93;2.70;;;;;;;21.58;79.64;101623.25;4806868;29;20503;-78
2022/06/29 06:31:25;;;;;;;4.40;2.58;;;;;;;21.92;79.62;101618.66;4857065;29;20057;-79
2022/06/29 06:33:54;;;;;;;3.80;2.20;;;;;;;22.16;78.18;101614.31;4816575;29;20045;-78
2022/06/29 06:36:22;;;;;;;8.05;2.20;;;;;;;22.34;76.25;101620.88;4855876;29;20038;-78
2022/06/29 06:38:51;;;;;;;5.47;2.63;;;;;;;22.46;75.69;101622.28;4836633;29;20049;-78
2022/06/29 06:41:22;;;;;;;2.92;2.50;;;;;;;22.51;75.15;101618.53;4825460;29;20411;-79
2022/06/29 06:43:57;;;;;;;5.82;2.15;;;;;;;22.49;73.82;101609.59;4845091;29;20037;-78
2022/06/29 06:46:26;;;;;;;7.78;2.70;;;;;;;22.43;72.53;101614.34;4827342;29;20060;-78
2022/06/29 06:48:55;;;;;;;5.95;2.60;;;;;;;22.42;75.30;101616.16;4864048;29;20049;-79
2022/06/29 06:51:24;;;;;;;2.72;2.08;;;;;;;22.46;74.15;101616.94;4871950;29;20316;-78
2022/06/29 06:53:53;;;;;;;3.20;2.22;;;;;;;22.47;72.58;101618.66;4855601;29;20030;-78
2022/06/29 06:56:21;;;;;;;4.68;2.45;;;;;;;22.44;71.52;101619.66;4826205;29;20045;-77
2022/06/29 06:58:50;;;;;;;5.55;2.10;;;;;;;22.41;71.56;101622.44;4828299;29;20084;-78
2022/06/29 07:01:22;;;;;;;4.68;2.00;;;;;;;22.42;72.65;101616.16;4854693;29;20118;-77
2022/06/29 07:03:51;;;;;;;3.75;2.00;;;;;;;22.51;71.92;101621.22;4809370;29;20041;-77
2022/06/29 07:06:20;;;;;;;2.67;2.10;;;;;;;22.62;71.42;101614.56;4871679;29;20041;-78
2022/06/29 07:08:49;;;;;;;5.05;2.45;;;;;;;22.64;71.98;101612.72;4850688;29;20046;-77
2022/06/29 07:11:18;;;;;;;2.00;1.90;;;;;;;22.67;70.19;101609.94;4823302;29;20052;-77
2022/06/29 07:13:47;;;;;;;2.30;2.10;;;;;;;22.66;70.86;101609.03;4829895;29;20062;-79
2022/06/29 07:16:19;;;;;;;5.93;2.63;;;;;;;22.65;71.42;101617.16;4864974;29;20048;-79
2022/06/29 07:18:49;;;;;;;4.05;2.40;;;;;;;22.61;70.89;101605.66;4852542;29;20052;-79
2022/06/29 07:21:20;;;;;;;3.72;1.98;;;;;;;22.60;70.55;101611.06;4853569;29;20046;-79
2022/06/29 07:23:49;;;;;;;6.18;2.38;;;;;;;22.66;74.17;101605.47;4843322;29;20041;-78
2022/06/29 07:26:22;;;;;;;6.85;2.55;;;;;;;22.71;71.55;101611.56;4779503;29;20045;-78
2022/06/29 07:28:51;;;;;;;3.92;2.60;;;;;;;22.75;71.37;101611.38;4840822;29;20058;-80
2022/06/29 07:31:24;;;;;;;3.88;2.28;;;;;;;22.78;72.48;101608.59;4828757;29;20060;-80
2022/06/29 07:33:52;;;;;;;4.38;2.28;;;;;;;22.71;71.78;101608.88;4830938;29;20073;-79
2022/06/29 07:36:21;;;;;;;1.85;1.67;;;;;;;22.74;74.00;101603.38;4845130;29;20164;-78
2022/06/29 07:38:50;;;;;;;3.47;1.88;;;;;;;22.80;73.88;101608.56;4827592;29;20045;-79
2022/06/29 07:41:18;;;;;;;2.85;1.90;;;;;;;22.83;73.56;101591.44;4852773;29;20064;-78
2022/06/29 07:43:47;;;;;;;3.72;1.90;;;;;;;22.87;75.25;101587.69;4826477;29;20499;-78
2022/06/29 07:46:16;;;;;;;1.80;1.67;;;;;;;22.85;72.72;101595.81;4824038;29;20058;-78
2022/06/29 07:48:44;;;;;;;5.40;2.35;;;;;;;22.82;72.18;101593.25;4831069;29;20045;-77
2022/06/29 07:51:13;;;;;;;3.08;2.00;;;;;;;22.81;73.49;101591.47;4859296;29;20416;-77
2022/06/29 07:53:44;;;;;;;6.00;2.38;;;;;;;22.82;73.12;101590.56;4837707;29;20056;-79
2022/06/29 07:56:13;;;;;;;4.25;2.22;;;;;;;22.87;74.01;101591.28;4853481;29;20045;-78
2022/06/29 07:58:41;;;;;;;4.40;2.00;;;;;;;22.92;73.19;101583.03;4833458;29;20391;-79
2022/06/29 08:01:10;;;;;;;4.93;1.70;;;;;;;22.96;75.20;101585.53;4826526;29;20049;-79
2022/06/29 08:03:41;;;;;;;5.53;2.25;;;;;;;23.02;75.11;101588.94;4846908;29;20053;-79
2022/06/29 08:06:15;;;;;;;5.93;2.10;;;;;;;23.01;74.18;101587.22;4835860;29;20708;-78
2022/06/29 08:08:44;;;;;;;4.47;2.10;;;;;;;23.06;75.14;101586.13;4854966;29;20050;-78
2022/06/29 08:11:16;;;;;;;3.20;1.80;;;;;;;23.12;73.78;101585.03;4819384;29;20053;-78
2022/06/29 08:13:45;;;;;;;3.67;2.38;;;;;;;23.15;72.77;101580.38;4819997;29;20041;-78
2022/06/29 08:16:13;;;;;;;2.90;2.35;;;;;;;23.13;73.55;101584.06;4849729;29;20046;-77
2022/06/29 08:18:42;;;;;;;3.45;2.05;;;;;;;23.14;73.83;101580.47;4852704;29;20049;-77
2022/06/29 08:21:10;;;;;;;4.80;1.70;;;;;;;23.19;74.53;101586.53;4839982;29;20238;-78
2022/06/29 08:23:39;;;;;;;3.63;2.00;;;;;;;23.28;74.31;101569.19;4847885;29;20705;-78
2022/06/29 08:26:13;;;;;;;4.38;2.00;;;;;;;23.29;73.07;101574.50;4850854;29;20479;-79
2022/06/29 08:29:02;;;;;;;3.17;2.00;;;;;;;23.23;72.26;101569.38;4802234;29;20077;-79
2022/06/29 08:31:31;;;;;;;2.85;2.05;;;;;;;23.24;72.76;101581.00;4853348;29;20045;-80
2022/06/29 08:34:04;;;;;;;5.38;2.28;;;;;;;23.19;74.44;101580.28;4657922;29;20076;-80
2022/06/29 08:36:32;;;;;;;3.53;2.40;;;;;;;23.21;76.22;101573.91;4850222;29;20056;-80
2022/06/29 08:39:20;;;;;;;6.28;2.78;;;;;;;23.29;76.83;101574.50;4868469;29;20041;-79
2022/06/29 08:41:52;;;;;;;5.53;2.23;;;;;;;23.26;76.99;101563.84;4840625;29;20061;-81
2022/06/29 08:44:30;;;;;;;3.58;2.15;;;;;;;23.30;77.78;101562.78;4870041;29;20053;-79
2022/06/29 08:47:04;;;;;;;2.78;1.73;;;;;;;23.33;76.74;101568.06;4858038;29;20064;-81
2022/06/29 08:49:34;;;;;;;5.05;1.85;;;;;;;23.35;76.38;101562.63;4847325;29;20041;-81
2022/06/29 08:52:04;;;;;;;;;;;;;;;23.41;74.81;101570.44;4865308;29;20041;-80
2022/06/29 08:54:36;;;;;;;2.97;2.13;;;;;;;23.42;74.74;101571.31;4852632;29;19924;-80
2022/06/29 08:57:06;;;;;;;2.22;1.95;;;;;;;23.50;75.74;101564.72;4836147;29;20061;-80
2022/06/29 08:59:35;;;;;;;2.20;2.00;;;;;;;23.60;75.20;101562.53;4851287;29;20042;-80
2022/06/29 09:02:24;;;;;;;3.95;2.10;;;;;;;23.64;74.54;101558.78;4834449;29;20403;-80
2022/06/29 09:04:54;;;;;;;3.78;1.80;;;;;;;23.69;75.38;101567.53;4862755;29;20276;-81
2022/06/29 09:07:26;;;;;;;;;;;;;;;23.69;72.18;101562.16;4845381;29;20052;-81
2022/06/29 09:09:58;;;;;;;3.92;2.10;;;;;;;23.78;73.59;101560.03;4868987;29;19924;-80
2022/06/29 09:12:28;;;;;;;2.10;1.90;;;;;;;23.83;72.99;101550.84;4853378;29;20064;-81
2022/06/29 09:14:58;;;;;;;3.67;1.95;;;;;;;23.92;73.55;101539.72;4832700;29;20047;-79
2022/06/29 09:17:30;;;;;;;2.70;2.42;;;;;;;23.94;72.52;101548.59;4811345;29;20064;-80
2022/06/29 09:19:59;;;;;;;5.07;1.70;;;;;;;23.98;72.08;101541.28;4840645;29;20586;-80
2022/06/29 09:22:56;;;;;;;2.90;2.00;;;;;;;24.06;72.04;101544.50;4843206;29;20073;-79
2022/06/29 09:25:31;;;;;;;3.88;1.95;;;;;;;24.13;71.88;101548.69;4847420;29;20709;-81
2022/06/29 09:27:59;;;;;;;2.03;1.85;;;;;;;24.17;69.89;101544.06;4859300;29;20048;-81
2022/06/29 09:30:35;;;;;;;1.75;1.65;;;;;;;24.22;69.60;101544.75;4861678;29;20179;-81
2022/06/29 09:33:07;;;;;;;3.00;1.90;;;;;;;24.32;69.00;101547.91;4818732;29;20515;-81
2022/06/29 09:35:38;;;;;;;4.53;2.20;;;;;;;24.38;67.94;101550.34;4841018;29;20049;-81
2022/06/29 09:38:20;;;;;;;3.60;2.30;;;;;;;24.45;67.46;101546.44;4837815;29;20061;-81
2022/06/29 09:41:08;;;;;;;2.80;1.73;;;;;;;24.48;63.91;101550.81;4843144;29;20074;-80
2022/06/29 09:43:41;;;;;;;1.95;1.70;;;;;;;24.44;65.36;101552.78;4846155;29;20041;-80
2022/06/29 09:46:12;;;;;;;1.75;1.65;;;;;;;24.44;65.26;101544.69;4845577;29;20582;-80
2022/06/29 09:48:42;;;;;;;1.55;1.45;;;;;;;24.51;65.86;101539.91;4829875;29;20499;-79
2022/06/29 09:51:30;;;;;;;3.65;1.60;;;;;;;24.64;64.50;101551.06;4827284;29;20485;-79
2022/06/29 09:54:05;;;;;;;6.68;1.88;;;;;;;24.67;62.58;101540.16;4849469;29;20076;-80
2022/06/29 09:56:34;;;;;;;2.55;1.60;;;;;;;24.73;64.00;101536.28;4853243;29;20049;-79
2022/06/29 09:59:06;;;;;;;3.03;1.70;;;;;;;24.82;62.87;101542.13;4855864;29;20065;-79
2022/06/29 10:04:27;;;;;;;2.72;1.70;;;;;;;24.95;62.59;101538.88;4848464;29;20399;-81
2022/06/29 10:06:56;;;;;;;4.78;1.92;;;;;;;24.97;62.28;101535.16;4835962;29;20057;-79
2022/06/29 10:09:25;;;;;;;5.45;1.73;;;;;;;25.01;62.66;101530.47;4832752;29;20072;-80
2022/06/29 10:15:21;;;;;;;3.40;1.77;;;;;;;25.18;61.42;101527.00;4850614;29;20076;-79
2022/06/29 10:17:59;;;;;;;2.45;1.40;;;;;;;25.29;62.55;101520.19;4868325;29;20049;-80
2022/06/29 10:20:38;;;;;;;3.17;1.70;;;;;;;25.46;60.85;101527.47;4828615;29;20054;-79
2022/06/29 10:23:06;;;;;;;3.13;1.63;;;;;;;25.55;61.24;101518.03;4852797;29;20142;-81
2022/06/29 10:25:37;;;;;;;1.70;1.58;;;;;;;25.70;60.77;101515.53;4839754;29;20041;-79
2022/06/29 10:28:16;;;;;;;1.77;1.67;;;;;;;25.73;59.08;101516.28;4851560;29;20072;-79
2022/06/29 10:30:45;;;;;;;2.55;1.70;;;;;;;25.72;59.52;101510.94;4868471;29;20046;-79
2022/06/29 10:33:42;;;;;;;2.60;1.90;;;;;;;25.68;57.54;101504.81;4849340;29;20079;-79
2022/06/29 10:36:11;;;;;;;3.10;1.67;;;;;;;25.76;59.72;101507.13;4827179;29;20054;-79
2022/06/29 10:38:55;;;;;;;2.75;1.65;;;;;;;25.83;57.45;101489.69;4836511;29;20049;-79
2022/06/29 10:44:10;;;;;;;2.22;1.55;;;;;;;26.06;59.58;101493.94;4844100;29;20740;-79
2022/06/29 10:47:20;;;;;;;2.95;1.65;;;;;;;26.27;57.31;101494.63;4843574;29;20053;-80
2022/06/29 10:49:49;;;;;;;1.67;1.50;;;;;;;26.38;57.71;101489.53;4810784;29;20813;-79
2022/06/29 10:52:17;;;;;;;1.63;1.52;;;;;;;26.46;56.66;101486.44;4852027;29;20060;-79
2022/06/29 10:54:46;;;;;;;3.50;1.30;;;;;;;26.56;57.25;101485.00;4815979;29;20511;-79
2022/06/29 10:57:14;;;;;;;2.38;1.85;;;;;;;26.59;54.98;101475.84;4832243;29;20049;-79
2022/06/29 10:59:43;;;;;;;5.38;1.50;;;;;;;26.62;55.52;101479.28;4848853;29;20164;-79
2022/06/29 11:02:17;;;;;;;2.85;1.52;;;;;;;26.71;54.24;101480.63;4858573;29;20049;-80
2022/06/29 11:04:45;;;;;;;1.83;1.38;;;;;;;26.81;55.23;101472.88;4841500;29;20053;-81
2022/06/29 11:12:55;;;;;;;4.80;1.40;;;;;;;26.88;53.11;101462.56;4845128;29;20057;-81
2022/06/29 11:15:41;;;;;;;4.15;1.67;;;;;;;26.83;52.90;101463.72;4837822;29;20566;-81
2022/06/29 11:18:16;;;;;;;6.35;1.42;;;;;;;26.79;52.86;101462.13;4850809;29;20260;-82
2022/06/29 11:20:53;;;;;;;2.00;1.50;;;;;;;26.80;50.73;101465.72;4845209;29;20388;-82
2022/06/29 11:23:27;;;;;;;2.80;1.45;;;;;;;26.76;52.46;101456.03;4823005;29;20060;-81
2022/06/29 11:25:55;;;;;;;1.80;1.70;;;;;;;26.85;52.82;101455.53;4851174;29;20679;-81
2022/06/29 11:28:27;;;;;;;2.85;1.50;;;;;;;26.84;52.69;101457.34;4849653;29;20470;-81
2022/06/29 11:31:09;;;;;;;3.90;1.55;;;;;;;26.78;53.02;101454.09;4855383;29;20130;-81
2022/06/29 11:33:45;;;;;;;2.45;1.98;;;;;;;26.76;52.50;101464.13;4854999;29;20045;-81
2022/06/29 11:36:18;;;;;;;1.85;1.20;;;;;;;26.64;52.53;101458.44;4867851;29;20287;-82
2022/06/29 11:38:49;;;;;;;1.67;1.58;;;;;;;26.55;52.22;101463.44;4842562;29;20053;-82
2022/06/29 11:41:26;;;;;;;1.90;1.70;;;;;;;26.52;53.20;101452.78;4841036;29;20341;-82
2022/06/29 11:44:02;;;;;;;3.65;1.90;;;;;;;26.44;53.12;101445.97;4866686;29;20052;-82
2022/06/29 11:46:35;;;;;;;2.47;1.50;;;;;;;26.49;53.67;101434.06;4852340;29;20388;-81
2022/06/29 11:52:05;;;;;;;3.28;1.90;;;;;;;26.84;55.27;101434.84;4845443;29;20061;-81
2022/06/29 11:54:39;;;;;;;2.83;1.73;;;;;;;26.87;54.99;101433.81;4842620;29;20069;-82
2022/06/29 11:57:11;;;;;;;3.53;1.70;;;;;;;26.84;53.66;101437.53;4852241;29;20045;-82
2022/06/29 11:59:40;;;;;;;2.15;1.70;;;;;;;26.78;53.32;101430.63;4859312;29;20084;-81
2022/06/29 12:02:10;;;;;;;2.10;2.00;;;;;;;26.75;54.83;101433.53;4822083;29;20068;-82
2022/06/29 12:04:40;;;;;;;;;;;;;;;26.78;51.68;101430.63;4870823;29;20046;-80